Time;durP1;ratioP1;P1;durP2;ratioP2;P2;SDS_P1;SDS_P2;PMS_P1;PMS_P2;Temp;Humidity;BMP_temperature;BMP_pressure;BME280_temperature;BME280_humidity;BME280_pressure;Samples;Min_cycle;Max_cycle;Signal;HPM_P1;HPM_P2
2023/01/15 00:01:16;;;;;;;3.17;0.80;;;9.30;99.90;;;;;;4844340;29;20232;-89
2023/01/15 00:03:42;;;;;;;0.60;0.60;;;9.30;99.90;;;;;;4860653;29;20210;-89
2023/01/15 00:06:08;;;;;;;0.77;0.60;;;9.30;99.90;;;;;;4844157;29;20185;-89
2023/01/15 00:08:34;;;;;;;0.65;0.60;;;9.30;99.90;;;;;;4844473;29;20290;-89
2023/01/15 00:11:03;;;;;;;0.50;0.50;;;9.30;99.90;;;;;;4844511;29;20216;-90
2023/01/15 00:13:29;;;;;;;0.93;0.53;;;9.30;99.90;;;;;;4844042;29;20879;-89
2023/01/15 00:16:05;;;;;;;3.13;0.57;;;9.30;99.90;;;;;;4844657;29;20212;-90
2023/01/15 00:18:31;;;;;;;0.60;0.53;;;9.30;99.90;;;;;;4843968;29;20192;-89
2023/01/15 00:21:06;;;;;;;0.50;0.50;;;9.30;99.90;;;;;;4843904;29;20200;-90
2023/01/15 00:29:06;;;;;;;0.60;0.50;;;9.30;99.90;;;;;;4861183;29;20172;-90
2023/01/15 00:31:34;;;;;;;0.80;0.43;;;9.30;99.90;;;;;;4844073;29;20177;-89
2023/01/15 00:34:00;;;;;;;0.98;0.60;;;9.20;99.90;;;;;;4843911;29;20594;-90
2023/01/15 00:36:27;;;;;;;0.87;0.50;;;9.30;99.90;;;;;;4843758;29;20268;-90
2023/01/15 00:38:53;;;;;;;1.27;0.40;;;9.20;99.90;;;;;;4843765;29;20240;-89
2023/01/15 00:41:19;;;;;;;0.68;0.40;;;9.20;99.90;;;;;;4860686;29;20160;-89
2023/01/15 00:43:45;;;;;;;0.43;0.37;;;9.20;99.90;;;;;;4843634;29;20197;-90
2023/01/15 00:46:11;;;;;;;1.60;0.50;;;9.20;99.90;;;;;;4843662;29;20197;-89
2023/01/15 00:48:38;;;;;;;0.40;0.40;;;9.20;99.90;;;;;;4844159;29;20185;-89
2023/01/15 00:51:04;;;;;;;3.30;0.70;;;9.20;99.90;;;;;;4843553;29;20192;-89
2023/01/15 00:53:30;;;;;;;1.23;0.60;;;9.20;99.90;;;;;;4843121;29;20212;-89
2023/01/15 00:55:56;;;;;;;1.13;0.40;;;9.20;99.90;;;;;;4843517;29;20224;-89
2023/01/15 00:58:22;;;;;;;1.48;0.57;;;9.30;99.90;;;;;;4842943;29;20226;-89
2023/01/15 01:00:56;;;;;;;0.53;0.40;;;9.30;99.90;;;;;;4843164;29;20234;-89
2023/01/15 01:03:22;;;;;;;0.95;0.50;;;9.30;99.90;;;;;;4842661;29;20204;-89
2023/01/15 01:05:48;;;;;;;1.15;0.50;;;9.20;99.90;;;;;;4859781;29;20177;-89
2023/01/15 01:08:14;;;;;;;1.37;0.60;;;9.10;99.90;;;;;;4842952;29;20196;-89
2023/01/15 01:10:40;;;;;;;3.83;1.00;;;9.00;99.90;;;;;;4843214;29;20673;-89
2023/01/15 01:13:06;;;;;;;1.43;0.50;;;8.80;99.90;;;;;;4842752;29;20204;-89
2023/01/15 01:15:36;;;;;;;0.93;0.50;;;8.70;99.90;;;;;;4843108;29;20272;-89
2023/01/15 01:18:03;;;;;;;1.10;0.50;;;8.60;99.90;;;;;;4842906;29;20169;-88
2023/01/15 01:20:30;;;;;;;1.30;0.47;;;8.50;99.90;;;;;;4842678;29;20228;-89
2023/01/15 01:22:56;;;;;;;0.53;0.37;;;8.30;99.90;;;;;;4842605;29;20189;-89
2023/01/15 01:25:21;;;;;;;3.17;0.50;;;8.30;99.90;;;;;;4842802;29;20173;-89
2023/01/15 01:27:47;;;;;;;2.53;0.50;;;8.20;99.90;;;;;;4859450;29;20188;-89
2023/01/15 01:30:14;;;;;;;2.33;0.50;;;8.20;99.90;;;;;;4842824;29;20181;-89
2023/01/15 01:32:43;;;;;;;1.33;0.50;;;8.10;99.90;;;;;;4842887;29;20181;-88
2023/01/15 01:35:09;;;;;;;1.03;0.30;;;8.10;99.90;;;;;;4859932;29;20225;-88
2023/01/15 01:37:34;;;;;;;1.67;0.50;;;8.10;99.90;;;;;;4842994;29;20232;-89
2023/01/15 01:40:00;;;;;;;1.00;0.40;;;8.00;99.90;;;;;;4842687;29;20212;-89
2023/01/15 01:42:26;;;;;;;2.20;0.73;;;7.90;99.90;;;;;;4859098;29;20245;-89
2023/01/15 01:45:03;;;;;;;2.43;0.60;;;7.70;99.90;;;;;;4843917;29;20681;-89
2023/01/15 01:47:30;;;;;;;0.93;0.43;;;7.60;99.90;;;;;;4846166;29;20625;-89
2023/01/15 01:50:08;;;;;;;1.70;0.43;;;7.40;99.90;;;;;;4846318;29;20248;-89
2023/01/15 01:52:59;;;;;;;1.60;0.57;;;7.30;99.90;;;;;;4845865;29;20617;-89
2023/01/15 01:55:27;;;;;;;3.07;0.50;;;7.10;99.90;;;;;;4845973;29;20181;-88
2023/01/15 01:57:57;;;;;;;0.77;0.40;;;7.00;99.90;;;;;;4862539;29;20513;-89
2023/01/15 02:00:23;;;;;;;1.50;0.30;;;6.90;99.90;;;;;;4862431;29;20252;-89
2023/01/15 02:02:51;;;;;;;1.43;0.40;;;6.80;99.90;;;;;;5232485;23;20255;-89
2023/01/15 02:05:38;;;;;;;2.30;0.50;;;6.70;99.90;;;;;;4845824;29;20173;-88
2023/01/15 02:08:05;;;;;;;0.77;0.40;;;6.70;99.90;;;;;;4845872;29;20180;-89
2023/01/15 02:10:30;;;;;;;3.37;0.40;;;6.60;99.90;;;;;;4845833;29;20177;-89
2023/01/15 02:13:20;;;;;;;2.27;0.63;;;6.50;99.90;;;;;;4845460;29;20181;-89
2023/01/15 02:16:16;;;;;;;0.70;0.30;;;6.50;99.90;;;;;;4845774;29;20636;-89
2023/01/15 02:18:57;;;;;;;2.87;0.50;;;6.40;99.90;;;;;;4845423;29;20188;-89
2023/01/15 02:21:47;;;;;;;3.03;0.60;;;6.50;99.90;;;;;;4845549;29;20196;-89
2023/01/15 02:24:36;;;;;;;0.60;0.30;;;6.40;99.90;;;;;;4845447;29;20548;-89
2023/01/15 02:27:15;;;;;;;4.40;0.50;;;6.30;99.90;;;;;;4845469;29;20173;-89
2023/01/15 02:30:10;;;;;;;2.83;0.67;;;6.30;99.90;;;;;;4862274;29;20169;-90
2023/01/15 02:32:51;;;;;;;3.13;0.50;;;6.30;99.90;;;;;;4845342;29;20192;-89
2023/01/15 02:35:27;;;;;;;1.13;0.40;;;6.30;99.90;;;;;;4845630;29;20180;-88
2023/01/15 02:37:58;;;;;;;1.37;0.40;;;6.30;99.90;;;;;;4845108;29;20208;-89
2023/01/15 02:40:25;;;;;;;0.93;0.40;;;6.20;99.90;;;;;;4845407;29;20212;-89
2023/01/15 02:42:53;;;;;;;0.73;0.33;;;6.20;99.90;;;;;;4844989;29;20175;-89
2023/01/15 02:45:25;;;;;;;3.90;0.40;;;6.20;99.90;;;;;;4845221;29;20626;-90
2023/01/15 02:47:59;;;;;;;1.43;0.47;;;6.20;99.90;;;;;;4845025;29;20180;-89
2023/01/15 02:50:29;;;;;;;3.00;0.40;;;6.10;99.90;;;;;;4844842;29;20183;-89
2023/01/15 02:53:00;;;;;;;1.23;0.40;;;6.10;99.90;;;;;;4844743;29;20184;-89
2023/01/15 02:55:30;;;;;;;2.83;0.30;;;6.10;99.90;;;;;;4844925;29;20198;-88
2023/01/15 02:58:00;;;;;;;0.30;0.20;;;6.00;99.90;;;;;;4845222;29;20176;-88
2023/01/15 03:00:30;;;;;;;1.17;0.47;;;6.00;99.90;;;;;;4844848;29;20610;-89
2023/01/15 03:03:11;;;;;;;2.47;0.50;;;5.90;99.90;;;;;;4835047;29;20233;-89
2023/01/15 03:05:50;;;;;;;0.37;0.30;;;5.80;99.90;;;;;;4842764;29;20173;-89
2023/01/15 03:08:16;;;;;;;1.83;0.80;;;5.90;99.90;;;;;;4826687;29;20169;-89
2023/01/15 03:10:59;;;;;;;0.30;0.23;;;5.80;99.90;;;;;;4826924;29;20550;-89
2023/01/15 03:14:03;;;;;;;1.40;0.47;;;5.80;99.90;;;;;;4826416;29;20217;-89
2023/01/15 03:16:35;;;;;;;1.07;0.43;;;5.80;99.90;;;;;;4826417;29;20185;-88
2023/01/15 03:19:16;;;;;;;0.50;0.30;;;5.80;99.90;;;;;;4826306;29;20182;-89
2023/01/15 03:22:01;;;;;;;0.20;0.20;;;5.80;99.90;;;;;;4826720;29;20221;-89
2023/01/15 03:24:41;;;;;;;2.23;0.50;;;5.70;99.90;;;;;;4826473;29;20230;-89
2023/01/15 03:27:07;;;;;;;0.57;0.27;;;5.70;99.90;;;;;;4826443;29;20177;-90
2023/01/15 03:29:37;;;;;;;0.23;0.20;;;5.70;99.90;;;;;;4826852;29;20188;-89
2023/01/15 03:32:04;;;;;;;0.73;0.30;;;5.70;99.90;;;;;;4845585;29;20188;-89
2023/01/15 03:34:56;;;;;;;1.90;0.30;;;5.70;99.90;;;;;;4844653;29;20204;-89
2023/01/15 03:37:24;;;;;;;2.00;0.20;;;5.70;99.90;;;;;;4845034;29;20198;-90
2023/01/15 03:39:51;;;;;;;2.00;0.50;;;5.60;99.90;;;;;;4844955;29;20241;-90
2023/01/15 03:43:39;;;;;;;2.13;0.43;;;5.60;99.90;;;;;;4845042;29;20263;-89
2023/01/15 03:45:42;;;;;;;0.90;0.50;;;5.70;99.90;;;;;;4861388;29;20259;-89
2023/01/15 03:48:18;;;;;;;0.30;0.30;;;5.60;99.90;;;;;;4844664;29;20173;-90
2023/01/15 03:51:00;;;;;;;0.47;0.40;;;5.60;99.90;;;;;;4844734;29;20180;-90
2023/01/15 03:53:50;;;;;;;2.80;0.30;;;5.60;99.90;;;;;;4844665;29;20204;-89
2023/01/15 03:56:54;;;;;;;0.37;0.20;;;5.60;99.90;;;;;;4844743;29;20181;-90
2023/01/15 03:59:24;;;;;;;0.93;0.30;;;5.60;99.90;;;;;;4844492;29;20314;-90
2023/01/15 04:01:52;;;;;;;0.20;0.20;;;5.60;99.90;;;;;;4844904;29;20177;-90
2023/01/15 04:04:18;;;;;;;0.93;0.40;;;5.60;99.90;;;;;;4844245;29;20264;-90
2023/01/15 04:06:45;;;;;;;0.20;0.20;;;5.60;99.90;;;;;;4844694;29;20185;-90
2023/01/15 04:09:12;;;;;;;0.63;0.20;;;5.60;99.90;;;;;;4844329;29;20184;-90
2023/01/15 04:11:38;;;;;;;0.83;0.20;;;5.60;99.90;;;;;;4844087;29;20185;-89
2023/01/15 04:14:04;;;;;;;0.80;0.30;;;5.60;99.90;;;;;;4844466;29;20260;-90
2023/01/15 04:16:31;;;;;;;0.77;0.40;;;5.60;99.90;;;;;;4844490;29;20649;-90
2023/01/15 04:18:57;;;;;;;0.50;0.30;;;5.60;99.90;;;;;;4844555;29;20236;-90
2023/01/15 04:21:23;;;;;;;1.43;0.50;;;5.60;99.90;;;;;;4844638;29;20185;-91
2023/01/15 04:23:49;;;;;;;1.63;0.43;;;5.60;99.90;;;;;;4844333;29;20635;-90
2023/01/15 04:26:15;;;;;;;0.40;0.20;;;5.60;99.90;;;;;;4860923;29;20192;-90
2023/01/15 04:28:41;;;;;;;2.37;0.50;;;5.60;99.90;;;;;;4844332;29;20274;-90
2023/01/15 04:31:07;;;;;;;2.33;0.30;;;5.60;99.90;;;;;;4844380;29;20185;-90
2023/01/15 04:33:33;;;;;;;0.93;0.50;;;5.60;99.90;;;;;;4844067;29;20221;-90
2023/01/15 04:36:00;;;;;;;0.70;0.30;;;5.60;99.90;;;;;;4844456;29;20301;-90
2023/01/15 04:38:26;;;;;;;3.60;0.30;;;5.60;99.90;;;;;;4844300;29;20561;-91
2023/01/15 04:46:24;;;;;;;2.13;0.40;;;5.60;99.90;;;;;;4861475;29;20660;-90
2023/01/15 04:48:50;;;;;;;1.60;0.40;;;5.60;99.90;;;;;;4844120;29;20272;-90
2023/01/15 04:51:16;;;;;;;0.23;0.20;;;5.60;99.90;;;;;;4844476;29;20263;-91
2023/01/15 04:53:42;;;;;;;1.77;0.50;;;5.60;99.90;;;;;;4844195;29;20303;-90
2023/01/15 04:56:08;;;;;;;0.63;0.27;;;5.60;99.90;;;;;;4844075;29;20184;-90
2023/01/15 04:58:34;;;;;;;0.33;0.30;;;5.60;99.90;;;;;;4844213;29;20191;-91
2023/01/15 05:01:00;;;;;;;0.53;0.40;;;5.60;99.90;;;;;;4844329;29;20218;-90
2023/01/15 05:03:27;;;;;;;1.90;0.40;;;5.60;99.90;;;;;;4843859;29;20387;-90
2023/01/15 05:05:52;;;;;;;2.00;0.47;;;5.70;99.90;;;;;;4844042;29;20244;-91
2023/01/15 05:08:18;;;;;;;2.63;0.40;;;5.60;99.90;;;;;;4844023;29;20177;-90
2023/01/15 05:10:44;;;;;;;2.40;0.40;;;5.60;99.90;;;;;;4844124;29;20225;-91
2023/01/15 05:13:10;;;;;;;0.30;0.30;;;5.70;99.90;;;;;;4844084;29;20208;-91
2023/01/15 05:15:37;;;;;;;4.53;0.40;;;5.70;99.90;;;;;;4844127;29;20191;-90
2023/01/15 05:18:03;;;;;;;2.40;0.30;;;5.60;99.90;;;;;;4843827;29;20260;-91
2023/01/15 05:20:29;;;;;;;1.47;0.50;;;5.70;99.90;;;;;;4847720;29;20211;-91
2023/01/15 05:22:55;;;;;;;5.73;0.40;;;5.60;99.90;;;;;;4864053;29;20282;-92
2023/01/15 05:25:22;;;;;;;1.37;0.40;;;5.70;99.90;;;;;;4847727;29;20255;-90
2023/01/15 05:27:47;;;;;;;0.60;0.30;;;5.60;99.90;;;;;;4848067;29;20264;-91
2023/01/15 05:30:13;;;;;;;2.27;0.40;;;5.70;99.90;;;;;;4847959;29;21095;-91
2023/01/15 05:32:39;;;;;;;1.00;0.50;;;5.60;99.90;;;;;;4839693;29;20204;-91
2023/01/15 05:35:06;;;;;;;2.27;0.60;;;5.60;99.90;;;;;;4829127;29;20213;-91
2023/01/15 05:37:34;;;;;;;0.40;0.30;;;5.60;99.90;;;;;;4814386;29;20193;-90
2023/01/15 05:39:59;;;;;;;4.07;0.50;;;5.60;99.90;;;;;;4829496;29;20198;-91
2023/01/15 05:42:25;;;;;;;1.77;0.40;;;5.60;99.90;;;;;;4829564;29;20226;-91
2023/01/15 05:44:51;;;;;;;2.27;0.47;;;5.60;99.90;;;;;;4829254;29;20253;-92
2023/01/15 05:47:17;;;;;;;0.40;0.40;;;5.60;99.90;;;;;;4829281;29;20660;-90
2023/01/15 05:49:42;;;;;;;2.10;0.50;;;5.60;99.90;;;;;;4829392;29;20181;-91
2023/01/15 05:52:08;;;;;;;0.93;0.40;;;5.60;99.90;;;;;;4829611;29;20543;-91
2023/01/15 05:54:35;;;;;;;2.67;0.50;;;5.60;99.90;;;;;;4845231;29;20253;-91
2023/01/15 05:57:02;;;;;;;0.40;0.40;;;5.50;99.90;;;;;;4828909;29;20177;-90
2023/01/15 05:59:29;;;;;;;1.67;0.60;;;5.50;99.90;;;;;;4828786;29;20265;-92
2023/01/15 06:01:55;;;;;;;0.77;0.40;;;5.50;99.90;;;;;;4830703;29;20226;-91
2023/01/15 06:04:23;;;;;;;1.83;0.60;;;5.50;99.90;;;;;;4847103;29;20623;-92
2023/01/15 06:06:51;;;;;;;0.80;0.47;;;5.60;99.90;;;;;;4847324;29;20240;-91
2023/01/15 06:09:17;;;;;;;1.20;0.60;;;5.60;99.90;;;;;;4847323;29;20173;-91
2023/01/15 06:11:43;;;;;;;2.10;0.60;;;5.60;99.90;;;;;;4847438;29;20684;-92
2023/01/15 06:14:11;;;;;;;2.10;0.60;;;5.60;99.90;;;;;;4846753;29;20208;-91
2023/01/15 06:16:39;;;;;;;2.53;0.83;;;5.60;99.90;;;;;;4864144;29;20173;-91
2023/01/15 06:19:05;;;;;;;1.07;0.40;;;5.50;99.90;;;;;;4847326;29;20181;-90
2023/01/15 06:21:33;;;;;;;3.07;0.70;;;5.50;99.90;;;;;;4847376;29;20177;-90
2023/01/15 06:23:59;;;;;;;3.47;0.53;;;5.50;99.90;;;;;;4847174;29;20741;-91
2023/01/15 06:26:25;;;;;;;1.53;0.50;;;5.60;99.90;;;;;;4846681;29;20736;-92
2023/01/15 06:28:51;;;;;;;2.90;0.60;;;5.50;99.90;;;;;;4846936;29;20197;-91
2023/01/15 06:31:19;;;;;;;1.33;0.60;;;5.60;99.90;;;;;;4846154;29;20271;-90
2023/01/15 06:33:46;;;;;;;2.37;0.50;;;5.60;99.90;;;;;;4846381;29;20231;-91
2023/01/15 06:36:20;;;;;;;2.60;0.60;;;5.50;99.90;;;;;;4846816;29;20661;-90
2023/01/15 06:38:46;;;;;;;2.47;0.80;;;5.50;99.90;;;;;;4846655;29;20212;-92
2023/01/15 06:47:33;;;;;;;1.97;0.77;;;5.60;99.90;;;;;;4863309;29;20701;-92
2023/01/15 06:49:35;;;;;;;3.40;0.63;;;5.60;99.90;;;;;;4852935;29;20203;-90
2023/01/15 06:52:02;;;;;;;2.20;0.77;;;5.60;99.90;;;;;;4846478;29;20180;-91
2023/01/15 06:54:28;;;;;;;2.63;0.80;;;5.50;99.90;;;;;;4862903;29;20200;-91
2023/01/15 06:56:55;;;;;;;3.67;0.70;;;5.50;99.90;;;;;;4846604;29;20180;-92
2023/01/15 06:59:20;;;;;;;2.70;0.90;;;5.50;99.90;;;;;;4846458;29;20688;-91
2023/01/15 07:01:46;;;;;;;5.93;0.90;;;5.50;99.90;;;;;;4846044;29;20272;-91
2023/01/15 07:04:12;;;;;;;4.00;0.80;;;5.50;99.90;;;;;;4845924;29;20211;-91
2023/01/15 07:06:38;;;;;;;3.70;0.80;;;5.50;99.90;;;;;;4846468;29;20180;-91
2023/01/15 07:09:04;;;;;;;5.53;0.90;;;5.50;99.90;;;;;;4846216;29;20176;-91
2023/01/15 07:11:30;;;;;;;6.87;0.90;;;5.60;99.90;;;;;;4846422;29;20177;-91
2023/01/15 07:14:04;;;;;;;4.00;1.47;;;5.60;99.90;;;;;;4846533;29;20599;-92
2023/01/15 07:16:35;;;;;;;1.93;0.80;;;5.60;99.90;;;;;;4846440;29;20262;-91
2023/01/15 07:19:02;;;;;;;4.83;1.00;;;5.60;99.90;;;;;;4847026;29;20198;-92
2023/01/15 07:21:28;;;;;;;5.40;1.13;;;5.60;99.90;;;;;;4846355;29;20189;-91
2023/01/15 07:23:57;;;;;;;3.80;0.60;;;5.60;99.90;;;;;;4846293;29;20212;-92
2023/01/15 07:26:23;;;;;;;3.63;0.67;;;5.60;99.90;;;;;;4846552;29;20279;-91
2023/01/15 07:28:49;;;;;;;4.97;0.83;;;5.60;99.90;;;;;;4846180;29;20275;-91
2023/01/15 07:31:15;;;;;;;4.97;1.20;;;5.60;99.90;;;;;;4846348;29;20177;-91
2023/01/15 07:33:40;;;;;;;6.43;0.97;;;5.60;99.90;;;;;;4862291;29;20657;-92
2023/01/15 07:36:06;;;;;;;1.93;0.80;;;5.60;99.90;;;;;;4846188;29;20649;-92
2023/01/15 07:38:32;;;;;;;5.70;0.90;;;5.60;99.90;;;;;;4846172;29;20172;-91
2023/01/15 07:52:03;;;;;;;5.93;1.00;;;5.70;99.90;;;;;;4862307;29;20189;-92
2023/01/15 07:54:29;;;;;;;5.53;0.90;;;5.70;99.90;;;;;;4845531;29;20204;-91
2023/01/15 07:56:55;;;;;;;5.17;1.00;;;5.70;99.90;;;;;;4845639;29;20606;-91
2023/01/15 07:59:22;;;;;;;3.60;1.03;;;5.70;99.90;;;;;;4845654;29;20705;-92
2023/01/15 08:01:47;;;;;;;3.90;0.97;;;5.70;99.90;;;;;;4845802;29;20177;-91
2023/01/15 08:04:13;;;;;;;4.73;1.07;;;5.80;99.90;;;;;;4845018;29;20665;-92
2023/01/15 08:06:39;;;;;;;8.70;1.70;;;5.70;99.90;;;;;;4844878;29;20225;-91
2023/01/15 08:09:05;;;;;;;2.47;0.70;;;5.80;99.90;;;;;;4845119;29;20654;-92
2023/01/15 08:17:02;;;;;;;3.83;1.17;;;5.90;99.90;;;;;;4861591;29;20171;-90
2023/01/15 08:19:31;;;;;;;5.93;1.40;;;5.90;99.90;;;;;;4844648;29;20348;-91
2023/01/15 08:22:00;;;;;;;7.33;1.53;;;5.90;99.90;;;;;;4844740;29;20181;-91
2023/01/15 08:24:26;;;;;;;7.47;1.40;;;5.90;99.90;;;;;;4844451;29;20255;-90
2023/01/15 08:26:52;;;;;;;6.03;1.00;;;5.90;99.90;;;;;;4844815;29;20293;-90
2023/01/15 08:29:18;;;;;;;5.43;0.90;;;5.80;99.90;;;;;;4844784;29;20263;-91
2023/01/15 08:31:44;;;;;;;8.00;1.57;;;5.80;99.90;;;;;;4844619;29;20230;-90
2023/01/15 08:34:10;;;;;;;5.80;1.17;;;5.80;99.90;;;;;;4844276;29;20314;-90
2023/01/15 08:36:36;;;;;;;2.47;0.90;;;5.90;99.90;;;;;;4844791;29;20204;-91
2023/01/15 08:39:02;;;;;;;5.73;1.20;;;5.90;99.90;;;;;;4844397;29;20661;-91
2023/01/15 08:41:29;;;;;;;4.30;1.00;;;5.90;99.90;;;;;;4844243;29;20189;-91
2023/01/15 08:43:54;;;;;;;5.17;1.10;;;5.90;99.90;;;;;;4844420;29;20208;-90
2023/01/15 08:46:20;;;;;;;7.53;1.00;;;5.90;99.90;;;;;;4844447;29;20555;-90
2023/01/15 08:48:47;;;;;;;5.43;1.27;;;5.80;99.90;;;;;;4861027;29;20180;-92
2023/01/15 08:51:13;;;;;;;5.67;1.13;;;5.80;99.90;;;;;;4844648;29;20357;-90
2023/01/15 08:53:39;;;;;;;6.17;1.23;;;5.90;99.90;;;;;;4844194;29;20239;-90
2023/01/15 08:56:12;;;;;;;2.83;1.10;;;5.80;99.90;;;;;;4844659;29;20630;-91
2023/01/15 08:58:38;;;;;;;4.57;1.07;;;5.90;99.90;;;;;;4844323;29;20271;-91
2023/01/15 09:01:05;;;;;;;3.10;1.10;;;5.90;99.90;;;;;;4844151;29;20311;-89
2023/01/15 09:03:31;;;;;;;3.23;0.93;;;5.90;99.90;;;;;;4844270;29;20247;-89
2023/01/15 09:05:58;;;;;;;4.30;0.87;;;5.90;99.90;;;;;;4844041;29;20211;-90
2023/01/15 09:08:25;;;;;;;6.73;1.53;;;5.90;99.90;;;;;;4843950;29;20189;-90
2023/01/15 09:11:00;;;;;;;8.40;1.53;;;5.90;99.90;;;;;;4844248;29;20297;-90
2023/01/15 09:13:28;;;;;;;4.30;1.10;;;5.90;99.90;;;;;;4844098;29;20211;-91
2023/01/15 09:15:57;;;;;;;2.93;0.80;;;5.90;99.90;;;;;;4844080;29;20740;-90
2023/01/15 09:18:23;;;;;;;3.93;0.90;;;5.90;99.90;;;;;;4860567;29;20208;-90
2023/01/15 09:20:49;;;;;;;6.13;1.10;;;5.90;99.90;;;;;;4843887;29;20273;-90
2023/01/15 09:23:15;;;;;;;3.00;0.70;;;6.00;99.90;;;;;;4843683;29;20204;-90
2023/01/15 09:25:49;;;;;;;9.10;1.83;;;6.00;99.90;;;;;;4843855;29;20204;-90
2023/01/15 09:28:15;;;;;;;2.90;0.87;;;6.00;99.90;;;;;;4860517;29;20169;-91
2023/01/15 09:30:41;;;;;;;3.17;0.80;;;6.00;99.90;;;;;;4843986;29;20189;-91
2023/01/15 09:33:08;;;;;;;3.50;0.90;;;5.90;99.90;;;;;;4843558;29;20220;-90
2023/01/15 09:35:34;;;;;;;4.47;0.90;;;6.00;99.90;;;;;;4843861;29;20196;-90
2023/01/15 09:37:59;;;;;;;1.90;0.70;;;6.00;99.90;;;;;;4843943;29;20263;-90
2023/01/15 09:40:49;;;;;;;3.23;0.93;;;6.00;99.90;;;;;;4844016;29;20232;-90
2023/01/15 09:43:33;;;;;;;7.30;0.73;;;6.00;99.90;;;;;;4844067;29;20210;-91
2023/01/15 09:46:09;;;;;;;5.13;1.13;;;6.00;99.90;;;;;;4843674;29;20216;-91
2023/01/15 09:48:53;;;;;;;3.27;0.90;;;6.10;99.90;;;;;;4843376;29;20184;-90
2023/01/15 09:51:46;;;;;;;6.10;1.20;;;6.10;99.90;;;;;;4843720;29;20188;-90
2023/01/15 09:54:38;;;;;;;3.80;0.80;;;6.10;99.90;;;;;;4860017;29;20204;-91
2023/01/15 09:57:15;;;;;;;4.00;0.93;;;6.10;99.90;;;;;;4844012;29;20184;-91
2023/01/15 09:59:45;;;;;;;3.60;0.90;;;6.20;99.90;;;;;;4843419;29;20664;-91
2023/01/15 10:02:20;;;;;;;4.23;1.03;;;6.10;99.90;;;;;;4843691;29;20225;-90
2023/01/15 10:04:52;;;;;;;4.13;0.93;;;6.10;99.90;;;;;;4843869;29;20264;-91
2023/01/15 10:07:37;;;;;;;2.70;0.83;;;6.10;99.90;;;;;;4846885;29;20185;-89
2023/01/15 10:10:12;;;;;;;2.23;0.80;;;6.10;99.90;;;;;;4863680;29;20176;-92
2023/01/15 10:12:39;;;;;;;6.10;0.80;;;6.10;99.90;;;;;;4846960;29;20192;-91
2023/01/15 10:15:25;;;;;;;4.20;1.00;;;6.10;99.90;;;;;;4847176;29;20208;-91
2023/01/15 10:17:56;;;;;;;2.60;0.77;;;6.20;99.90;;;;;;4847470;29;20192;-91
2023/01/15 10:20:39;;;;;;;3.27;0.90;;;6.10;99.90;;;;;;4863565;29;20204;-90
2023/01/15 10:23:05;;;;;;;1.37;0.70;;;6.10;99.90;;;;;;4846982;29;20283;-92
2023/01/15 10:25:57;;;;;;;3.73;0.87;;;6.10;99.90;;;;;;4846855;29;20268;-92
2023/01/15 10:28:28;;;;;;;3.30;0.90;;;6.10;99.90;;;;;;4846696;29;20189;-91
2023/01/15 10:30:56;;;;;;;5.43;1.00;;;6.20;99.90;;;;;;4846573;29;20192;-91
2023/01/15 10:34:07;;;;;;;2.10;0.97;;;6.20;99.90;;;;;;4846500;29;20657;-90
2023/01/15 10:36:48;;;;;;;2.70;0.60;;;6.20;99.90;;;;;;4806646;29;20295;-91
2023/01/15 10:39:36;;;;;;;1.77;0.60;;;6.20;99.90;;;;;;4846331;29;20188;-90
2023/01/15 10:42:44;;;;;;;3.20;0.83;;;6.20;99.90;;;;;;4846449;29;20541;-90
2023/01/15 10:45:24;;;;;;;1.80;0.63;;;6.30;99.90;;;;;;4863237;29;20177;-91
2023/01/15 10:48:00;;;;;;;7.63;1.00;;;6.30;99.90;;;;;;4846387;29;20622;-91
2023/01/15 10:50:26;;;;;;;2.00;0.53;;;6.20;99.90;;;;;;4846079;29;20188;-91
2023/01/15 10:53:07;;;;;;;0.67;0.43;;;6.10;99.90;;;;;;4845807;29;20275;-91
2023/01/15 10:55:39;;;;;;;2.00;0.60;;;6.10;99.90;;;;;;4846266;29;20264;-90
2023/01/15 10:58:12;;;;;;;1.93;0.60;;;6.10;99.90;;;;;;4862754;29;20634;-90
2023/01/15 11:00:39;;;;;;;1.70;0.60;;;6.00;99.90;;;;;;4845926;29;20216;-89
2023/01/15 11:03:13;;;;;;;0.90;0.43;;;6.00;99.90;;;;;;4845608;29;20236;-90
2023/01/15 11:05:40;;;;;;;1.87;0.37;;;6.00;99.90;;;;;;4845825;29;20208;-91
2023/01/15 11:08:12;;;;;;;1.70;0.73;;;6.00;99.90;;;;;;4845994;29;20185;-89
2023/01/15 11:10:39;;;;;;;1.80;0.43;;;6.00;99.90;;;;;;4845822;29;20189;-91
2023/01/15 11:21:41;;;;;;;1.07;0.50;;;5.80;99.90;;;;;;4862411;29;20184;-90
2023/01/15 11:24:16;;;;;;;1.27;0.50;;;5.70;99.90;;;;;;4845709;29;20657;-89
2023/01/15 11:26:50;;;;;;;0.30;0.30;;;5.60;99.90;;;;;;4845746;29;20183;-89
2023/01/15 11:29:33;;;;;;;0.83;0.40;;;5.60;99.90;;;;;;4845460;29;20180;-90
2023/01/15 11:31:59;;;;;;;2.13;0.60;;;5.60;99.90;;;;;;4845949;29;20195;-90
2023/01/15 11:34:24;;;;;;;1.57;0.53;;;5.60;99.90;;;;;;4845156;29;20204;-89
2023/01/15 11:37:06;;;;;;;2.83;0.70;;;5.60;99.90;;;;;;4845227;29;20287;-90
2023/01/15 11:39:31;;;;;;;1.47;0.50;;;5.70;99.90;;;;;;4845169;29;20243;-91
2023/01/15 11:50:42;;;;;;;4.10;0.63;;;5.80;99.90;;;;;;4843408;29;20271;-90
2023/01/15 11:53:17;;;;;;;2.80;0.50;;;5.90;99.90;;;;;;4845077;29;20696;-89
2023/01/15 11:55:52;;;;;;;0.80;0.40;;;6.10;99.90;;;;;;4845186;29;20190;-90
2023/01/15 11:58:18;;;;;;;3.37;0.67;;;6.30;99.90;;;;;;4845084;29;20181;-90
2023/01/15 12:00:49;;;;;;;1.00;0.60;;;6.30;99.90;;;;;;4844794;29;20368;-91
2023/01/15 12:03:19;;;;;;;2.40;0.70;;;6.40;99.90;;;;;;4844561;29;20769;-90
2023/01/15 12:06:15;;;;;;;6.63;0.53;;;6.50;99.90;;;;;;4844843;29;20209;-91
2023/01/15 12:08:52;;;;;;;3.37;0.90;;;6.50;99.90;;;;;;4846232;29;20228;-91
2023/01/15 12:11:24;;;;;;;1.57;0.67;;;6.50;99.90;;;;;;4844818;29;20188;-90
2023/01/15 12:14:14;;;;;;;2.27;0.93;;;6.60;99.90;;;;;;4844451;29;20212;-91
2023/01/15 12:17:01;;;;;;;4.17;0.70;;;6.70;99.90;;;;;;4844503;29;20188;-90
2023/01/15 12:20:01;;;;;;;3.00;0.70;;;6.60;99.90;;;;;;4844496;29;20188;-89
2023/01/15 12:22:49;;;;;;;5.30;1.17;;;6.70;99.90;;;;;;4844756;29;20215;-90
2023/01/15 12:25:38;;;;;;;2.10;0.63;;;6.70;99.90;;;;;;4844827;29;20200;-90
2023/01/15 12:28:26;;;;;;;3.20;0.60;;;6.70;99.90;;;;;;4860563;29;20256;-91
2023/01/15 12:31:09;;;;;;;2.87;1.00;;;6.80;99.90;;;;;;4844425;29;20525;-90
2023/01/15 12:33:45;;;;;;;2.43;0.57;;;6.80;99.90;;;;;;4844182;29;20204;-90
2023/01/15 12:36:19;;;;;;;6.60;0.77;;;6.80;99.90;;;;;;4844443;29;20656;-91
2023/01/15 12:39:00;;;;;;;0.93;0.50;;;6.80;99.90;;;;;;4844319;29;20325;-90
2023/01/15 12:44:59;;;;;;;2.67;0.73;;;6.70;99.90;;;;;;4860798;29;20229;-89
2023/01/15 12:48:01;;;;;;;4.70;0.90;;;6.80;99.90;;;;;;4844517;29;20228;-89
2023/01/15 12:50:46;;;;;;;1.93;0.70;;;6.80;99.90;;;;;;4844601;29;20184;-90
2023/01/15 12:53:29;;;;;;;1.97;0.50;;;6.80;99.90;;;;;;4844253;29;20212;-90
2023/01/15 12:55:57;;;;;;;4.27;0.70;;;6.80;99.90;;;;;;4844200;29;20192;-91
2023/01/15 12:58:49;;;;;;;1.27;0.53;;;6.90;99.90;;;;;;4844518;29;20177;-89
2023/01/15 13:01:18;;;;;;;4.63;0.90;;;7.00;99.90;;;;;;4844108;29;20212;-91
2023/01/15 13:04:06;;;;;;;3.30;0.70;;;7.10;99.90;;;;;;4843938;29;20244;-90
2023/01/15 13:06:34;;;;;;;1.37;0.50;;;6.90;99.90;;;;;;4844188;29;20562;-90
2023/01/15 13:09:22;;;;;;;1.43;0.53;;;6.90;99.90;;;;;;4844124;29;20641;-91
2023/01/15 13:11:48;;;;;;;2.47;0.50;;;6.90;99.90;;;;;;4844016;29;20225;-90
2023/01/15 13:14:20;;;;;;;5.27;0.77;;;6.80;99.90;;;;;;4844423;29;20215;-91
2023/01/15 13:16:57;;;;;;;1.67;0.97;;;6.80;99.90;;;;;;4843813;29;20220;-90
2023/01/15 13:19:54;;;;;;;0.90;0.50;;;6.70;99.90;;;;;;4843819;29;20283;-90
2023/01/15 13:22:25;;;;;;;2.37;0.80;;;6.70;99.90;;;;;;4835176;29;20192;-90
2023/01/15 13:25:04;;;;;;;1.93;0.80;;;6.80;99.90;;;;;;4844074;29;20681;-90
2023/01/15 13:28:08;;;;;;;1.73;0.57;;;6.80;99.90;;;;;;4844100;29;20259;-90
2023/01/15 13:31:02;;;;;;;2.33;0.70;;;6.80;99.90;;;;;;4844070;29;20559;-91
2023/01/15 13:33:35;;;;;;;2.57;0.60;;;6.80;99.90;;;;;;4837169;29;20769;-88
2023/01/15 13:36:11;;;;;;;3.53;0.70;;;6.80;99.90;;;;;;4843923;29;20276;-91
2023/01/15 13:38:42;;;;;;;2.40;0.60;;;6.90;99.90;;;;;;4844014;29;20304;-89
2023/01/15 13:41:08;;;;;;;3.23;0.87;;;6.90;99.90;;;;;;4845595;29;20204;-91
2023/01/15 13:43:43;;;;;;;4.67;0.80;;;6.90;99.90;;;;;;4863739;29;20208;-91
2023/01/15 13:46:19;;;;;;;2.20;0.60;;;6.80;99.90;;;;;;4847840;29;20184;-90
2023/01/15 13:48:50;;;;;;;3.13;0.70;;;6.70;99.90;;;;;;4847227;29;20184;-90
2023/01/15 13:51:23;;;;;;;2.80;0.57;;;6.70;99.90;;;;;;4847620;29;20177;-90
2023/01/15 13:53:49;;;;;;;5.83;0.80;;;6.70;99.90;;;;;;4847083;29;20728;-90
2023/01/15 13:56:38;;;;;;;3.83;0.60;;;6.70;99.90;;;;;;4847111;29;20184;-90
2023/01/15 13:59:25;;;;;;;5.07;0.90;;;6.70;99.90;;;;;;4847455;29;20215;-90
2023/01/15 14:01:51;;;;;;;1.03;0.40;;;6.60;99.90;;;;;;4846931;29;20199;-90
2023/01/15 14:04:17;;;;;;;3.10;0.90;;;6.70;99.90;;;;;;4846777;29;20237;-90
2023/01/15 14:06:47;;;;;;;2.80;0.83;;;6.70;99.90;;;;;;4863913;29;20240;-90
2023/01/15 14:09:19;;;;;;;6.63;0.80;;;6.60;99.90;;;;;;4846646;29;20185;-90
2023/01/15 14:11:57;;;;;;;4.70;0.83;;;6.70;99.90;;;;;;4847023;29;20184;-91
2023/01/15 14:14:48;;;;;;;4.77;0.80;;;6.70;99.90;;;;;;4863400;29;20748;-91
2023/01/15 14:17:22;;;;;;;4.63;0.77;;;6.70;99.90;;;;;;4846909;29;20189;-93